Time;durP1;ratioP1;P1;durP2;ratioP2;P2;SDS_P1;SDS_P2;PMS_P1;PMS_P2;Temp;Humidity;BMP_temperature;BMP_pressure;BME280_temperature;BME280_humidity;BME280_pressure;Samples;Min_cycle;Max_cycle;Signal;HPM_P1;HPM_P2
2021/09/22 00:01:58;;;;;;;6.07;5.47;;;;;;;;;;5112689;27;20402;-92
2021/09/22 00:04:25;;;;;;;7.07;5.53;;;;;;;;;;5115275;27;20406;-92
2021/09/22 00:06:52;;;;;;;6.45;5.47;;;;;;;;;;5108854;27;20413;-91
2021/09/22 00:09:19;;;;;;;6.63;5.95;;;;;;;;;;5113315;27;20900;-92
2021/09/22 00:11:46;;;;;;;7.25;5.80;;;;;;;;;;5101459;28;20409;-92
2021/09/22 00:14:13;;;;;;;6.25;5.38;;;;;;;;;;5109632;27;20404;-91
2021/09/22 00:16:40;;;;;;;6.50;5.47;;;;;;;;;;5101562;27;20396;-91
2021/09/22 00:19:08;;;;;;;7.80;5.57;;;;;;;;;;5106259;27;20755;-92
2021/09/22 00:21:35;;;;;;;5.70;5.13;;;;;;;;;;5109482;27;20400;-92
2021/09/22 00:24:02;;;;;;;7.03;5.32;;;;;;;;;;5105007;28;20416;-92
2021/09/22 00:26:29;;;;;;;5.85;5.00;;;;;;;;;;5112493;27;20446;-92
2021/09/22 00:28:56;;;;;;;6.80;5.22;;;;;;;;;;5095197;28;20391;-91
2021/09/22 00:31:23;;;;;;;6.07;5.45;;;;;;;;;;5105512;28;20902;-92
2021/09/22 00:33:50;;;;;;;5.78;4.88;;;;;;;;;;5091094;28;20411;-91
2021/09/22 00:36:18;;;;;;;7.07;5.47;;;;;;;;;;5109793;28;20411;-91
2021/09/22 00:38:45;;;;;;;6.90;5.47;;;;;;;;;;5108992;27;20407;-91
2021/09/22 00:41:12;;;;;;;6.70;5.40;;;;;;;;;;5110387;27;20398;-93
2021/09/22 00:43:39;;;;;;;6.53;5.30;;;;;;;;;;5109619;28;20410;-91
2021/09/22 00:46:06;;;;;;;6.80;5.18;;;;;;;;;;5118000;27;20423;-92
2021/09/22 00:48:34;;;;;;;6.30;5.68;;;;;;;;;;5130652;27;20398;-90
2021/09/22 00:51:04;;;;;;;9.18;6.00;;;;;;;;;;5131874;27;20403;-91
2021/09/22 00:53:32;;;;;;;8.10;5.68;;;;;;;;;;5129737;27;20587;-91
2021/09/22 00:56:03;;;;;;;7.50;5.68;;;;;;;;;;5129445;27;20398;-92
2021/09/22 00:58:30;;;;;;;5.97;5.07;;;;;;;;;;5128806;27;20394;-92
2021/09/22 01:00:57;;;;;;;7.28;5.55;;;;;;;;;;5138422;27;20424;-92
2021/09/22 01:03:25;;;;;;;6.10;5.50;;;;;;;;;;5109477;27;20544;-90
2021/09/22 01:05:52;;;;;;;6.43;5.57;;;;;;;;;;5116961;27;20416;-91
2021/09/22 01:08:20;;;;;;;6.22;5.63;;;;;;;;;;5126006;27;20402;-92
2021/09/22 01:10:49;;;;;;;6.88;5.07;;;;;;;;;;5113932;27;20753;-91
2021/09/22 01:13:18;;;;;;;6.15;5.40;;;;;;;;;;5110844;27;20401;-92
2021/09/22 01:15:45;;;;;;;5.80;5.30;;;;;;;;;;5117837;27;20405;-92
2021/09/22 01:18:15;;;;;;;5.97;5.38;;;;;;;;;;5114821;27;20417;-92
2021/09/22 01:20:44;;;;;;;6.50;5.80;;;;;;;;;;5093827;27;20412;-93
2021/09/22 01:23:12;;;;;;;7.50;5.63;;;;;;;;;;5105147;27;20397;-94
2021/09/22 01:25:41;;;;;;;7.63;5.78;;;;;;;;;;5106924;27;20415;-93
2021/09/22 01:28:08;;;;;;;6.50;5.53;;;;;;;;;;5098839;27;20423;-92
2021/09/22 01:30:35;;;;;;;7.07;5.63;;;;;;;;;;5102164;27;20400;-93
2021/09/22 01:33:05;;;;;;;6.77;5.43;;;;;;;;;;5109305;27;20398;-93
2021/09/22 01:35:34;;;;;;;6.13;5.53;;;;;;;;;;5091504;28;20397;-93
2021/09/22 01:38:01;;;;;;;6.45;5.85;;;;;;;;;;5105348;28;20462;-93
2021/09/22 01:40:29;;;;;;;6.25;5.45;;;;;;;;;;5114387;27;20399;-94
2021/09/22 01:42:56;;;;;;;7.05;5.45;;;;;;;;;;5113383;27;20406;-93
2021/09/22 01:45:24;;;;;;;6.50;5.90;;;;;;;;;;5118674;27;20407;-94
2021/09/22 01:47:51;;;;;;;7.28;5.50;;;;;;;;;;5119378;27;20397;-93
2021/09/22 01:50:19;;;;;;;6.30;5.70;;;;;;;;;;5110783;28;20409;-94
2021/09/22 01:52:49;;;;;;;7.82;5.90;;;;;;;;;;5117604;27;20393;-93
2021/09/22 01:55:17;;;;;;;7.03;5.80;;;;;;;;;;5111726;27;20410;-94
2021/09/22 01:57:46;;;;;;;6.20;5.50;;;;;;;;;;5113458;27;20406;-94
2021/09/22 02:00:14;;;;;;;7.00;5.68;;;;;;;;;;5111802;27;20410;-94
2021/09/22 02:02:42;;;;;;;6.32;5.72;;;;;;;;;;5106692;28;20460;-93
2021/09/22 02:05:09;;;;;;;7.45;6.00;;;;;;;;;;5110403;28;20402;-93
2021/09/22 02:07:37;;;;;;;8.43;6.10;;;;;;;;;;5110933;28;20403;-92
2021/09/22 02:10:06;;;;;;;6.32;5.70;;;;;;;;;;5110776;28;21141;-94
2021/09/22 02:12:33;;;;;;;7.65;5.80;;;;;;;;;;5097543;28;20406;-93
2021/09/22 02:15:02;;;;;;;7.38;5.93;;;;;;;;;;5110804;28;20407;-93
2021/09/22 02:17:29;;;;;;;7.22;5.93;;;;;;;;;;5110600;28;20414;-91
2021/09/22 02:19:56;;;;;;;6.50;5.80;;;;;;;;;;5096180;28;20437;-93
2021/09/22 02:22:23;;;;;;;6.95;5.68;;;;;;;;;;5096688;28;20409;-93
2021/09/22 02:24:50;;;;;;;9.57;5.80;;;;;;;;;;5097955;28;20404;-94
2021/09/22 02:27:18;;;;;;;6.70;6.10;;;;;;;;;;5091973;28;20915;-94
2021/09/22 02:29:46;;;;;;;6.40;5.72;;;;;;;;;;5108109;27;20434;-93
2021/09/22 02:32:17;;;;;;;6.60;5.90;;;;;;;;;;5105893;28;20414;-93
2021/09/22 02:34:44;;;;;;;7.75;5.72;;;;;;;;;;5098203;28;20413;-93
2021/09/22 02:37:12;;;;;;;6.50;5.80;;;;;;;;;;5106358;28;20767;-93
2021/09/22 02:39:39;;;;;;;6.28;5.60;;;;;;;;;;5124007;27;20397;-93
2021/09/22 02:42:06;;;;;;;7.40;5.93;;;;;;;;;;5113416;27;20407;-94
2021/09/22 02:44:33;;;;;;;6.45;5.75;;;;;;;;;;5103694;28;21075;-94
2021/09/22 02:47:00;;;;;;;7.05;5.63;;;;;;;;;;5100966;28;20421;-93
2021/09/22 02:49:28;;;;;;;7.07;5.60;;;;;;;;;;5101444;27;20412;-93
2021/09/22 02:51:55;;;;;;;6.13;5.53;;;;;;;;;;5101466;27;20407;-94
2021/09/22 02:54:23;;;;;;;6.10;5.47;;;;;;;;;;5101207;28;20617;-93
2021/09/22 02:56:50;;;;;;;5.63;5.10;;;;;;;;;;5094390;28;20400;-93
2021/09/22 02:59:17;;;;;;;6.97;5.38;;;;;;;;;;5091455;27;20419;-94
2021/09/22 03:01:45;;;;;;;6.60;5.50;;;;;;;;;;5101989;27;20483;-93
2021/09/22 03:04:12;;;;;;;6.10;5.50;;;;;;;;;;5097580;27;20407;-94
2021/09/22 03:06:41;;;;;;;6.60;5.65;;;;;;;;;;5092916;28;20409;-93
2021/09/22 03:09:07;;;;;;;6.35;5.75;;;;;;;;;;5092433;28;20420;-93
2021/09/22 03:11:35;;;;;;;9.05;5.63;;;;;;;;;;5118850;28;20397;-94
2021/09/22 03:14:02;;;;;;;6.50;5.53;;;;;;;;;;5117422;28;20404;-94
2021/09/22 03:16:30;;;;;;;6.38;5.50;;;;;;;;;;5114450;28;20402;-93
2021/09/22 03:18:57;;;;;;;5.97;5.03;;;;;;;;;;5124961;28;20416;-93
2021/09/22 03:21:24;;;;;;;6.20;5.22;;;;;;;;;;5103824;28;20437;-94
2021/09/22 03:23:53;;;;;;;6.10;5.50;;;;;;;;;;5105413;28;20405;-93
2021/09/22 03:26:20;;;;;;;6.22;5.35;;;;;;;;;;5101057;28;20420;-94
2021/09/22 03:28:47;;;;;;;7.65;5.43;;;;;;;;;;5097008;28;20411;-94
2021/09/22 03:31:14;;;;;;;7.30;5.50;;;;;;;;;;5096657;28;20412;-94
2021/09/22 03:33:42;;;;;;;7.88;5.07;;;;;;;;;;5100324;28;20783;-94
2021/09/22 03:36:09;;;;;;;6.10;5.50;;;;;;;;;;5107492;28;20766;-94
2021/09/22 03:38:36;;;;;;;7.13;5.63;;;;;;;;;;5104776;28;20406;-94
2021/09/22 03:41:05;;;;;;;8.23;5.50;;;;;;;;;;5104489;28;20756;-94
2021/09/22 03:43:32;;;;;;;7.07;5.10;;;;;;;;;;5108863;28;20422;-93
2021/09/22 03:45:59;;;;;;;5.75;5.15;;;;;;;;;;5104174;28;20415;-93
2021/09/22 03:48:26;;;;;;;6.25;5.65;;;;;;;;;;5098937;28;20407;-93
2021/09/22 03:50:53;;;;;;;6.10;5.53;;;;;;;;;;5102804;28;20408;-94
2021/09/22 03:53:21;;;;;;;7.47;5.68;;;;;;;;;;5102852;28;20420;-93
2021/09/22 03:55:49;;;;;;;6.13;5.50;;;;;;;;;;5092274;28;20410;-94
2021/09/22 03:58:17;;;;;;;7.15;5.53;;;;;;;;;;5104454;28;20418;-93
2021/09/22 04:00:45;;;;;;;6.80;5.18;;;;;;;;;;5095876;28;20412;-93
2021/09/22 04:03:12;;;;;;;6.25;5.32;;;;;;;;;;5106884;28;20406;-94
2021/09/22 04:05:39;;;;;;;7.72;5.88;;;;;;;;;;5097191;28;20414;-93
2021/09/22 04:08:06;;;;;;;5.93;5.32;;;;;;;;;;5107921;27;21178;-94
2021/09/22 04:10:33;;;;;;;6.43;5.18;;;;;;;;;;5106589;28;20489;-93
2021/09/22 04:13:00;;;;;;;5.40;4.90;;;;;;;;;;5102811;27;20408;-93
2021/09/22 04:15:28;;;;;;;7.30;5.40;;;;;;;;;;5095003;27;20415;-94
2021/09/22 04:17:55;;;;;;;6.03;5.10;;;;;;;;;;5087963;28;20400;-93
2021/09/22 04:20:22;;;;;;;5.83;4.93;;;;;;;;;;5088235;28;20485;-93
2021/09/22 04:22:50;;;;;;;5.47;4.97;;;;;;;;;;5107704;28;20496;-94
2021/09/22 04:25:18;;;;;;;6.38;5.38;;;;;;;;;;5115729;27;20395;-94
2021/09/22 04:27:45;;;;;;;5.73;5.13;;;;;;;;;;5099163;28;20497;-94
2021/09/22 04:30:12;;;;;;;6.03;5.13;;;;;;;;;;5097664;28;20406;-94
2021/09/22 04:32:41;;;;;;;6.10;5.03;;;;;;;;;;5096655;27;20909;-94
2021/09/22 04:35:09;;;;;;;5.83;5.17;;;;;;;;;;5102199;28;20412;-94
2021/09/22 04:37:38;;;;;;;6.40;5.75;;;;;;;;;;5106415;28;21189;-94
2021/09/22 04:40:08;;;;;;;6.20;5.60;;;;;;;;;;5101101;28;20413;-94
2021/09/22 04:42:35;;;;;;;6.05;5.45;;;;;;;;;;5112960;28;20406;-94
2021/09/22 04:45:02;;;;;;;6.82;5.60;;;;;;;;;;5096836;27;20404;-94
2021/09/22 04:47:29;;;;;;;5.88;5.18;;;;;;;;;;5097720;28;20410;-93
2021/09/22 04:49:59;;;;;;;5.97;4.90;;;;;;;;;;5099116;28;20406;-93
2021/09/22 04:52:26;;;;;;;8.37;5.47;;;;;;;;;;5097506;28;20416;-93
2021/09/22 04:54:53;;;;;;;5.38;4.88;;;;;;;;;;5091446;28;20462;-94
2021/09/22 04:57:20;;;;;;;7.00;5.07;;;;;;;;;;5097092;28;20498;-93
2021/09/22 04:59:47;;;;;;;6.88;5.20;;;;;;;;;;5105551;28;20410;-93
2021/09/22 05:02:14;;;;;;;7.25;5.28;;;;;;;;;;5104643;28;20400;-93
2021/09/22 05:04:42;;;;;;;6.55;5.28;;;;;;;;;;5101619;28;20761;-92
2021/09/22 05:07:11;;;;;;;5.97;5.30;;;;;;;;;;5100137;27;20466;-91
2021/09/22 05:09:37;;;;;;;6.88;5.57;;;;;;;;;;5107108;28;20395;-91
2021/09/22 05:12:05;;;;;;;7.00;5.43;;;;;;;;;;5111001;28;20482;-92
2021/09/22 05:14:32;;;;;;;7.47;5.38;;;;;;;;;;5112566;28;20399;-91
2021/09/22 05:16:59;;;;;;;6.85;5.53;;;;;;;;;;5107551;28;20743;-91
2021/09/22 05:19:26;;;;;;;6.53;5.83;;;;;;;;;;5101033;28;20463;-92
2021/09/22 05:21:53;;;;;;;6.50;5.50;;;;;;;;;;5108837;28;20397;-91
2021/09/22 05:24:22;;;;;;;6.37;5.63;;;;;;;;;;5112158;27;20397;-92
2021/09/22 05:26:49;;;;;;;8.65;5.63;;;;;;;;;;5096388;28;20413;-91
2021/09/22 05:29:15;;;;;;;7.38;5.85;;;;;;;;;;5104240;27;20413;-92
2021/09/22 05:31:43;;;;;;;7.60;5.82;;;;;;;;;;5105406;28;20407;-91
2021/09/22 05:34:10;;;;;;;7.75;5.90;;;;;;;;;;5100498;27;20404;-93
2021/09/22 05:36:37;;;;;;;7.50;5.93;;;;;;;;;;5100843;27;20494;-92
2021/09/22 05:39:04;;;;;;;7.43;5.55;;;;;;;;;;5102458;27;20414;-91
2021/09/22 05:41:32;;;;;;;7.78;5.82;;;;;;;;;;5105349;27;20399;-90
2021/09/22 05:43:59;;;;;;;7.40;5.70;;;;;;;;;;5107645;27;20407;-90
2021/09/22 05:46:26;;;;;;;8.05;5.65;;;;;;;;;;5109296;27;20737;-90
2021/09/22 05:48:53;;;;;;;7.50;5.30;;;;;;;;;;5111446;27;20387;-90
2021/09/22 05:51:20;;;;;;;5.63;5.13;;;;;;;;;;5109117;27;20407;-89
2021/09/22 05:53:48;;;;;;;7.13;5.63;;;;;;;;;;5109268;27;20428;-90
2021/09/22 05:56:15;;;;;;;6.40;5.32;;;;;;;;;;5113970;27;20757;-90
2021/09/22 05:58:44;;;;;;;7.55;5.25;;;;;;;;;;5100706;27;20443;-90
2021/09/22 06:01:11;;;;;;;6.15;5.30;;;;;;;;;;5113175;27;20497;-91
2021/09/22 06:03:38;;;;;;;6.70;5.22;;;;;;;;;;5113927;27;20405;-90
2021/09/22 06:06:05;;;;;;;6.88;5.35;;;;;;;;;;5117561;27;20410;-91
2021/09/22 06:08:32;;;;;;;7.50;5.18;;;;;;;;;;5110113;27;20466;-90
2021/09/22 06:10:59;;;;;;;6.35;5.10;;;;;;;;;;5114342;27;20439;-91
2021/09/22 06:13:26;;;;;;;8.55;5.55;;;;;;;;;;5116452;27;20402;-91
2021/09/22 06:15:54;;;;;;;6.10;5.28;;;;;;;;;;5105163;27;20399;-90
2021/09/22 06:18:24;;;;;;;6.63;5.20;;;;;;;;;;5115877;27;20747;-91
2021/09/22 06:20:51;;;;;;;8.38;5.30;;;;;;;;;;5100251;27;20418;-91
2021/09/22 06:23:19;;;;;;;6.23;5.50;;;;;;;;;;5116786;27;20473;-91
2021/09/22 06:25:45;;;;;;;6.13;5.53;;;;;;;;;;5107305;27;20401;-90
2021/09/22 06:28:12;;;;;;;7.05;5.30;;;;;;;;;;5111176;27;20746;-90
2021/09/22 06:30:39;;;;;;;9.48;5.95;;;;;;;;;;5098831;27;20408;-91
2021/09/22 06:33:08;;;;;;;7.38;5.43;;;;;;;;;;5115002;27;20466;-91
2021/09/22 06:35:35;;;;;;;8.80;6.00;;;;;;;;;;5108834;27;20465;-90
2021/09/22 06:38:03;;;;;;;9.07;5.43;;;;;;;;;;5114738;27;20921;-90
2021/09/22 06:40:30;;;;;;;7.50;5.38;;;;;;;;;;5111333;27;20393;-90
2021/09/22 06:42:57;;;;;;;7.97;5.90;;;;;;;;;;5112617;27;20423;-90
2021/09/22 06:45:24;;;;;;;8.65;5.35;;;;;;;;;;5118964;27;20404;-91
2021/09/22 06:47:52;;;;;;;6.20;5.43;;;;;;;;;;5125367;27;20487;-91
2021/09/22 06:50:20;;;;;;;6.20;5.10;;;;;;;;;;5136137;27;20423;-90
2021/09/22 06:52:50;;;;;;;7.50;5.82;;;;;;;;;;5123847;27;20738;-91
2021/09/22 06:55:18;;;;;;;8.43;5.45;;;;;;;;;;5107094;27;20396;-89
2021/09/22 06:57:46;;;;;;;11.50;5.72;;;;;;;;;;5111438;27;21143;-91
2021/09/22 07:00:14;;;;;;;5.90;5.17;;;;;;;;;;5111785;27;20404;-91
2021/09/22 07:02:41;;;;;;;6.40;4.90;;;;;;;;;;5106306;27;20555;-91
2021/09/22 07:05:11;;;;;;;6.70;5.50;;;;;;;;;;5119998;27;20400;-91
2021/09/22 07:07:40;;;;;;;5.70;5.13;;;;;;;;;;5107027;27;20888;-90
2021/09/22 07:10:08;;;;;;;7.50;5.00;;;;;;;;;;5117512;27;20451;-91
2021/09/22 07:12:35;;;;;;;6.10;4.90;;;;;;;;;;5120476;27;20405;-90
2021/09/22 07:15:02;;;;;;;6.68;5.65;;;;;;;;;;5116146;27;20413;-91
2021/09/22 07:17:31;;;;;;;5.32;4.80;;;;;;;;;;5113189;27;20394;-91
2021/09/22 07:19:58;;;;;;;7.82;5.10;;;;;;;;;;5104974;27;20415;-90
2021/09/22 07:22:25;;;;;;;5.75;5.18;;;;;;;;;;5102261;27;20418;-91
2021/09/22 07:24:53;;;;;;;6.50;5.22;;;;;;;;;;5114914;27;20816;-92
2021/09/22 07:27:22;;;;;;;6.57;4.88;;;;;;;;;;5103552;27;20415;-91
2021/09/22 07:29:49;;;;;;;7.22;5.30;;;;;;;;;;5114792;27;20746;-91
2021/09/22 07:32:16;;;;;;;8.15;5.47;;;;;;;;;;5110340;27;20405;-91
2021/09/22 07:34:43;;;;;;;7.38;5.30;;;;;;;;;;5111911;27;20409;-91
2021/09/22 07:37:11;;;;;;;6.45;5.35;;;;;;;;;;5110819;27;20406;-91
2021/09/22 07:39:40;;;;;;;6.70;5.47;;;;;;;;;;5115615;27;20419;-89
2021/09/22 07:42:12;;;;;;;7.93;5.82;;;;;;;;;;5114566;27;20472;-90
2021/09/22 07:44:45;;;;;;;6.75;5.32;;;;;;;;;;5106352;27;20408;-90
2021/09/22 07:47:13;;;;;;;5.60;5.07;;;;;;;;;;5111223;27;20424;-90
2021/09/22 07:49:40;;;;;;;6.30;5.35;;;;;;;;;;5111043;27;20407;-91
2021/09/22 07:52:07;;;;;;;8.37;4.97;;;;;;;;;;5112805;27;20449;-90
2021/09/22 07:54:34;;;;;;;7.38;5.22;;;;;;;;;;5116885;27;20400;-90
2021/09/22 07:57:01;;;;;;;5.60;4.60;;;;;;;;;;5116163;27;20409;-90
2021/09/22 07:59:30;;;;;;;6.00;4.93;;;;;;;;;;5109329;27;20898;-91
2021/09/22 08:01:59;;;;;;;5.45;4.80;;;;;;;;;;5105475;27;20942;-91
2021/09/22 08:04:27;;;;;;;7.57;5.20;;;;;;;;;;5111560;27;20431;-90
2021/09/22 08:06:54;;;;;;;7.15;5.53;;;;;;;;;;5107100;27;20416;-91
2021/09/22 08:09:21;;;;;;;7.15;5.10;;;;;;;;;;5103301;27;20420;-90
2021/09/22 08:11:48;;;;;;;5.17;4.67;;;;;;;;;;5114465;27;20420;-90
2021/09/22 08:14:15;;;;;;;7.53;4.90;;;;;;;;;;5110337;27;20392;-91
2021/09/22 08:16:45;;;;;;;6.22;4.90;;;;;;;;;;5119686;27;20404;-91
2021/09/22 08:19:12;;;;;;;7.07;4.72;;;;;;;;;;5116160;27;20401;-91
2021/09/22 08:21:39;;;;;;;6.22;4.97;;;;;;;;;;5117894;27;20410;-91
2021/09/22 08:24:07;;;;;;;7.30;4.97;;;;;;;;;;5116901;27;20411;-91
2021/09/22 08:26:33;;;;;;;6.30;4.60;;;;;;;;;;5103228;27;20409;-75
2021/09/22 08:29:00;;;;;;;6.03;4.57;;;;;;;;;;5119486;28;20419;-93
2021/09/22 08:31:27;;;;;;;5.30;4.80;;;;;;;;;;5113272;27;20405;-92
2021/09/22 08:33:55;;;;;;;5.40;4.47;;;;;;;;;;5113361;28;20773;-91
2021/09/22 08:36:22;;;;;;;6.67;4.40;;;;;;;;;;5111850;28;20397;-93
2021/09/22 08:38:50;;;;;;;8.57;4.82;;;;;;;;;;5120547;27;20388;-93
2021/09/22 08:41:18;;;;;;;5.68;4.82;;;;;;;;;;5108244;27;20429;-92
2021/09/22 08:43:45;;;;;;;5.63;4.90;;;;;;;;;;5109077;28;20408;-92
2021/09/22 08:46:14;;;;;;;6.53;5.07;;;;;;;;;;5118717;27;20408;-92
2021/09/22 08:48:42;;;;;;;6.80;5.00;;;;;;;;;;5113900;28;20413;-93
2021/09/22 08:51:10;;;;;;;7.82;5.15;;;;;;;;;;5113015;28;20409;-92
2021/09/22 08:53:37;;;;;;;8.90;5.03;;;;;;;;;;5115339;28;20829;-92
2021/09/22 08:56:04;;;;;;;5.57;4.82;;;;;;;;;;5116801;28;20405;-93
2021/09/22 08:58:31;;;;;;;5.82;4.32;;;;;;;;;;5107020;27;20408;-92
2021/09/22 09:01:11;;;;;;;9.13;4.37;;;;;;;;;;5111828;28;20395;-92
2021/09/22 09:03:40;;;;;;;8.15;4.07;;;;;;;;;;5116219;27;20408;-93
2021/09/22 09:06:20;;;;;;;6.53;3.97;;;;;;;;;;5112737;27;20410;-92
2021/09/22 09:08:48;;;;;;;4.70;4.20;;;;;;;;;;5106465;27;20494;-93
2021/09/22 09:11:15;;;;;;;7.78;4.10;;;;;;;;;;5112750;27;20402;-92
2021/09/22 09:13:47;;;;;;;7.50;4.40;;;;;;;;;;5116592;27;20387;-92
2021/09/22 09:16:17;;;;;;;4.50;3.92;;;;;;;;;;5121456;27;20394;-92
2021/09/22 09:18:48;;;;;;;4.95;4.40;;;;;;;;;;5108603;27;20401;-93
2021/09/22 09:21:15;;;;;;;6.38;4.88;;;;;;;;;;5115729;27;20417;-92
2021/09/22 09:23:53;;;;;;;6.57;4.72;;;;;;;;;;5119390;27;20665;-92
2021/09/22 09:26:25;;;;;;;6.25;4.68;;;;;;;;;;5113053;27;20416;-93
2021/09/22 09:28:54;;;;;;;5.55;4.43;;;;;;;;;;5114465;27;20915;-93
2021/09/22 09:31:21;;;;;;;6.60;4.90;;;;;;;;;;5122219;27;20397;-92
2021/09/22 09:33:49;;;;;;;5.60;4.35;;;;;;;;;;5117211;27;20563;-93
2021/09/22 09:36:33;;;;;;;7.93;5.03;;;;;;;;;;5120174;27;20401;-93
2021/09/22 09:39:06;;;;;;;7.93;4.70;;;;;;;;;;5114290;27;20398;-93
2021/09/22 09:41:42;;;;;;;5.57;5.03;;;;;;;;;;5113489;27;20934;-92
2021/09/22 09:44:11;;;;;;;6.80;4.60;;;;;;;;;;5073561;28;20471;-93
2021/09/22 09:46:39;;;;;;;6.25;4.57;;;;;;;;;;5068363;28;20961;-92
2021/09/22 09:49:10;;;;;;;6.53;5.22;;;;;;;;;;5077970;28;20421;-93
2021/09/22 09:51:44;;;;;;;6.23;4.93;;;;;;;;;;5078195;28;20494;-94
2021/09/22 09:54:21;;;;;;;7.68;5.10;;;;;;;;;;5070524;28;20414;-93
2021/09/22 09:56:50;;;;;;;5.87;5.03;;;;;;;;;;5061627;28;20420;-93
2021/09/22 09:59:19;;;;;;;5.95;5.25;;;;;;;;;;5070760;28;20404;-92
2021/09/22 10:01:48;;;;;;;6.85;5.50;;;;;;;;;;5074489;28;20675;-92
2021/09/22 10:04:17;;;;;;;5.95;5.22;;;;;;;;;;5075620;28;20406;-92
2021/09/22 10:06:45;;;;;;;8.70;5.85;;;;;;;;;;5069121;28;20404;-93
2021/09/22 10:09:13;;;;;;;7.10;5.10;;;;;;;;;;5075105;28;20587;-93
2021/09/22 10:11:45;;;;;;;5.68;5.07;;;;;;;;;;5071030;28;20414;-93
2021/09/22 10:14:14;;;;;;;7.30;5.18;;;;;;;;;;5079066;28;20746;-92
2021/09/22 10:16:43;;;;;;;7.78;5.78;;;;;;;;;;5076968;28;20413;-92
2021/09/22 10:19:10;;;;;;;7.35;5.50;;;;;;;;;;5074333;28;20886;-94
2021/09/22 10:21:38;;;;;;;7.18;5.28;;;;;;;;;;5080081;28;20401;-92
2021/09/22 10:24:09;;;;;;;7.57;5.50;;;;;;;;;;5080191;28;20417;-93
2021/09/22 10:26:37;;;;;;;5.80;5.20;;;;;;;;;;5075145;28;20522;-92
2021/09/22 10:31:58;;;;;;;5.28;4.72;;;;;;;;;;5100901;27;20443;-92
2021/09/22 10:34:33;;;;;;;6.05;5.22;;;;;;;;;;5088489;28;20416;-91
2021/09/22 10:37:02;;;;;;;6.18;5.50;;;;;;;;;;5094675;28;20425;-92
2021/09/22 10:39:42;;;;;;;6.67;5.93;;;;;;;;;;5088011;28;20409;-91
2021/09/22 10:42:27;;;;;;;6.78;5.32;;;;;;;;;;5094585;28;20401;-91
2021/09/22 10:45:13;;;;;;;6.75;5.45;;;;;;;;;;5089786;28;20516;-92
2021/09/22 10:47:41;;;;;;;6.28;5.65;;;;;;;;;;5088527;28;21276;-92
2021/09/22 10:50:09;;;;;;;7.25;5.60;;;;;;;;;;5088997;28;20412;-92
2021/09/22 10:52:38;;;;;;;5.78;5.25;;;;;;;;;;5089743;28;20414;-91
2021/09/22 10:55:14;;;;;;;5.65;5.05;;;;;;;;;;5092010;28;20428;-93
2021/09/22 10:57:43;;;;;;;6.53;5.50;;;;;;;;;;5087084;28;20472;-93
2021/09/22 11:00:13;;;;;;;7.60;5.30;;;;;;;;;;5096586;28;20425;-93
2021/09/22 11:02:44;;;;;;;6.63;4.78;;;;;;;;;;5092897;28;20753;-92
2021/09/22 11:05:13;;;;;;;5.30;4.78;;;;;;;;;;5092206;28;20733;-94
2021/09/22 11:07:58;;;;;;;6.45;4.90;;;;;;;;;;5091412;28;20669;-92
2021/09/22 11:10:53;;;;;;;7.05;5.90;;;;;;;;;;5087645;28;20478;-92
2021/09/22 11:13:37;;;;;;;5.72;5.20;;;;;;;;;;5089746;28;20411;-94
2021/09/22 11:16:26;;;;;;;5.72;4.78;;;;;;;;;;5089062;28;20417;-94
2021/09/22 11:18:57;;;;;;;8.05;6.30;;;;;;;;;;5085112;28;20435;-93
2021/09/22 11:21:24;;;;;;;5.60;4.80;;;;;;;;;;5091121;28;21205;-94
2021/09/22 11:23:53;;;;;;;5.88;5.20;;;;;;;;;;5089773;28;20409;-94
2021/09/22 11:26:20;;;;;;;6.35;5.45;;;;;;;;;;5087095;28;20695;-94
2021/09/22 11:28:53;;;;;;;5.60;5.10;;;;;;;;;;5085699;28;21311;-93
2021/09/22 11:31:21;;;;;;;6.45;5.07;;;;;;;;;;5088830;28;20614;-94
2021/09/22 11:33:49;;;;;;;6.07;5.35;;;;;;;;;;5087399;28;20877;-94
2021/09/22 11:36:18;;;;;;;6.45;5.28;;;;;;;;;;5094220;28;20386;-94
2021/09/22 11:38:45;;;;;;;6.25;4.55;;;;;;;;;;5111064;27;20397;-94
2021/09/22 11:41:13;;;;;;;5.43;4.68;;;;;;;;;;5116223;27;20519;-95
2021/09/22 11:43:41;;;;;;;6.10;4.35;;;;;;;;;;5093936;28;20394;-95
2021/09/22 11:46:08;;;;;;;5.63;5.13;;;;;;;;;;5101060;28;20406;-93
2021/09/22 11:48:36;;;;;;;7.00;5.10;;;;;;;;;;5099456;28;20485;-95
2021/09/22 11:51:07;;;;;;;5.15;4.65;;;;;;;;;;5101366;28;20421;-95
2021/09/22 11:53:39;;;;;;;5.35;4.85;;;;;;;;;;5072717;28;20416;-94
2021/09/22 11:56:08;;;;;;;5.22;4.72;;;;;;;;;;5074708;28;20417;-94
2021/09/22 11:58:36;;;;;;;5.57;5.07;;;;;;;;;;5073632;28;20418;-93
2021/09/22 12:01:05;;;;;;;4.90;4.40;;;;;;;;;;5075177;28;20768;-94
2021/09/22 12:03:35;;;;;;;5.32;4.40;;;;;;;;;;5077098;28;20420;-92
2021/09/22 12:06:06;;;;;;;5.07;4.57;;;;;;;;;;5073547;28;21056;-93
2021/09/22 12:08:36;;;;;;;6.10;4.85;;;;;;;;;;5075763;28;20397;-93
2021/09/22 12:11:04;;;;;;;5.43;4.93;;;;;;;;;;5071796;28;20691;-91
2021/09/22 12:13:31;;;;;;;5.40;4.60;;;;;;;;;;5068102;28;20422;-91
2021/09/22 12:15:59;;;;;;;5.47;4.82;;;;;;;;;;5067636;28;20410;-92
2021/09/22 12:18:29;;;;;;;4.60;4.10;;;;;;;;;;5069335;28;20482;-92
2021/09/22 12:21:02;;;;;;;5.50;4.63;;;;;;;;;;5072668;28;20398;-93
2021/09/22 12:23:35;;;;;;;4.82;4.35;;;;;;;;;;5070308;28;20455;-92
2021/09/22 12:26:16;;;;;;;5.45;4.30;;;;;;;;;;5069574;28;20468;-92
2021/09/22 12:28:47;;;;;;;5.93;4.50;;;;;;;;;;5070917;28;20446;-93
2021/09/22 12:31:20;;;;;;;5.55;4.53;;;;;;;;;;5067631;28;20414;-92
2021/09/22 12:33:51;;;;;;;5.70;4.28;;;;;;;;;;5071485;28;20815;-93
2021/09/22 12:36:22;;;;;;;4.75;4.32;;;;;;;;;;5070729;28;20396;-95
2021/09/22 12:38:54;;;;;;;5.25;4.75;;;;;;;;;;5069228;28;20445;-93
2021/09/22 12:41:27;;;;;;;4.50;4.10;;;;;;;;;;5070001;28;20764;-94
2021/09/22 12:44:02;;;;;;;4.20;3.80;;;;;;;;;;5068177;28;20463;-93
2021/09/22 12:46:40;;;;;;;5.03;4.38;;;;;;;;;;5067447;28;20413;-92
2021/09/22 12:49:21;;;;;;;4.93;4.43;;;;;;;;;;5071639;28;20408;-92
2021/09/22 12:51:52;;;;;;;6.45;5.13;;;;;;;;;;5069690;28;20594;-92
2021/09/22 12:54:23;;;;;;;4.60;4.20;;;;;;;;;;5065429;28;20456;-93
2021/09/22 12:57:13;;;;;;;4.33;3.80;;;;;;;;;;5065849;28;20402;-93
2021/09/22 12:59:44;;;;;;;4.53;4.13;;;;;;;;;;5069849;28;20509;-93
2021/09/22 13:02:23;;;;;;;4.80;4.20;;;;;;;;;;5074443;28;20402;-93
2021/09/22 13:04:54;;;;;;;5.70;4.00;;;;;;;;;;5064922;28;20398;-94
2021/09/22 13:07:25;;;;;;;4.50;3.83;;;;;;;;;;5068125;28;20410;-93
2021/09/22 13:10:06;;;;;;;4.93;4.07;;;;;;;;;;5073834;28;20410;-93
2021/09/22 13:12:39;;;;;;;5.30;4.27;;;;;;;;;;5067575;28;20414;-93
2021/09/22 13:15:25;;;;;;;6.00;4.95;;;;;;;;;;5069034;28;20437;-92
2021/09/22 13:17:55;;;;;;;5.17;4.67;;;;;;;;;;5068359;28;20410;-92
2021/09/22 13:20:30;;;;;;;5.15;4.50;;;;;;;;;;5067630;28;20445;-93
2021/09/22 13:23:00;;;;;;;4.82;4.30;;;;;;;;;;5087968;28;20592;-93
2021/09/22 13:25:31;;;;;;;4.50;4.10;;;;;;;;;;5072502;28;20414;-94
2021/09/22 13:28:06;;;;;;;4.55;3.80;;;;;;;;;;5076387;28;20421;-91
2021/09/22 13:30:36;;;;;;;6.38;4.40;;;;;;;;;;5067250;28;20412;-93
2021/09/22 13:33:05;;;;;;;4.63;4.20;;;;;;;;;;5068692;28;20484;-93
2021/09/22 13:35:37;;;;;;;6.18;4.22;;;;;;;;;;5073828;28;20396;-91
2021/09/22 13:38:08;;;;;;;4.20;3.65;;;;;;;;;;5070953;28;20501;-91
2021/09/22 13:40:40;;;;;;;5.30;4.13;;;;;;;;;;5088090;28;20400;-91
2021/09/22 13:43:17;;;;;;;4.70;3.83;;;;;;;;;;5075842;28;20419;-90
2021/09/22 13:45:49;;;;;;;5.00;3.77;;;;;;;;;;5078127;28;20462;-93
2021/09/22 13:48:20;;;;;;;4.27;3.97;;;;;;;;;;5089637;28;20475;-92
2021/09/22 13:50:51;;;;;;;5.03;4.20;;;;;;;;;;5089065;28;20453;-91
2021/09/22 13:53:24;;;;;;;4.57;3.88;;;;;;;;;;5087936;28;20420;-92
2021/09/22 13:55:54;;;;;;;4.93;4.07;;;;;;;;;;5087452;28;20395;-91
2021/09/22 13:58:29;;;;;;;5.37;3.87;;;;;;;;;;5090697;28;20396;-93
2021/09/22 14:00:59;;;;;;;4.13;3.60;;;;;;;;;;5089292;28;20376;-91
2021/09/22 14:03:28;;;;;;;4.55;4.07;;;;;;;;;;5088850;28;20901;-93
2021/09/22 14:05:57;;;;;;;5.72;3.90;;;;;;;;;;5087169;28;20433;-91
2021/09/22 14:08:26;;;;;;;5.15;3.95;;;;;;;;;;5086753;28;20433;-92
2021/09/22 14:10:54;;;;;;;4.53;3.67;;;;;;;;;;5071520;28;20415;-91
2021/09/22 14:13:24;;;;;;;4.50;4.10;;;;;;;;;;5074927;28;20422;-91
2021/09/22 14:15:54;;;;;;;4.00;3.40;;;;;;;;;;5075725;28;20408;-94
2021/09/22 14:18:22;;;;;;;4.43;3.90;;;;;;;;;;5074248;28;20402;-93
2021/09/22 14:20:54;;;;;;;5.05;4.00;;;;;;;;;;5073460;28;20414;-91
2021/09/22 14:23:22;;;;;;;5.03;3.92;;;;;;;;;;5070290;28;20751;-91
2021/09/22 14:25:50;;;;;;;4.05;3.60;;;;;;;;;;5070642;28;20406;-89
2021/09/22 14:28:20;;;;;;;5.07;3.90;;;;;;;;;;5069392;28;20413;-91
2021/09/22 14:30:51;;;;;;;5.07;3.72;;;;;;;;;;5071511;28;20444;-92
2021/09/22 14:33:21;;;;;;;4.90;3.97;;;;;;;;;;5070682;28;20895;-91
2021/09/22 14:35:52;;;;;;;3.97;3.67;;;;;;;;;;5073051;28;20469;-89
2021/09/22 14:38:23;;;;;;;4.32;3.92;;;;;;;;;;5073072;28;20810;-91
2021/09/22 14:40:53;;;;;;;4.35;3.95;;;;;;;;;;5071269;28;20475;-91
2021/09/22 14:43:23;;;;;;;5.22;3.80;;;;;;;;;;5067555;28;20762;-91
2021/09/22 14:45:55;;;;;;;3.92;3.63;;;;;;;;;;5066697;28;20406;-90
2021/09/22 14:48:27;;;;;;;4.22;3.60;;;;;;;;;;5066623;28;20536;-91
2021/09/22 14:50:58;;;;;;;4.70;3.90;;;;;;;;;;5065708;28;20414;-90
2021/09/22 14:53:30;;;;;;;4.68;3.90;;;;;;;;;;5068162;28;20482;-91
2021/09/22 14:56:01;;;;;;;4.80;4.30;;;;;;;;;;5073972;28;20428;-90
2021/09/22 14:58:30;;;;;;;4.60;4.20;;;;;;;;;;5070513;28;20871;-91